createdAt,value
2023-06-17T00:02:38.601Z,19.30
2023-06-17T00:05:32.789Z,19.30
2023-06-17T00:08:24.797Z,19.20
2023-06-17T00:11:11.504Z,19.20
2023-06-17T00:14:04.872Z,19.10
2023-06-17T00:16:50.885Z,19.10
2023-06-17T00:19:44.777Z,19.00
2023-06-17T00:22:37.790Z,19.10
2023-06-17T00:25:29.859Z,19.00
2023-06-17T00:28:21.804Z,19.00
2023-06-17T00:31:13.815Z,19.00
2023-06-17T00:33:59.525Z,19.00
2023-06-17T00:36:51.884Z,18.90
2023-06-17T00:39:37.333Z,18.90
2023-06-17T00:42:28.868Z,18.90
2023-06-17T00:45:14.575Z,18.80
2023-06-17T00:48:06.839Z,18.80
2023-06-17T00:50:53.219Z,18.80
2023-06-17T00:53:44.930Z,18.80
2023-06-17T00:56:32.829Z,18.70
2023-06-17T00:59:24.874Z,18.70
2023-06-17T01:02:12.051Z,18.60
2023-06-17T01:05:04.916Z,18.60
2023-06-17T01:08:10.915Z,18.60
2023-06-17T01:11:13.871Z,18.50
2023-06-17T01:14:06.905Z,18.50
2023-06-17T01:17:01.960Z,18.40
2023-06-17T01:19:55.972Z,18.40
2023-06-17T01:22:42.704Z,18.30
2023-06-17T01:25:39.055Z,18.30
2023-06-17T01:28:32.005Z,18.30
2023-06-17T01:31:20.685Z,18.20
2023-06-17T01:34:13.989Z,18.20
2023-06-17T01:37:06.953Z,18.20
2023-06-17T01:40:03.958Z,18.10
2023-06-17T01:42:59.933Z,18.10
2023-06-17T01:45:47.520Z,18.00
2023-06-17T01:48:39.955Z,18.00
2023-06-17T01:51:25.995Z,18.00
2023-06-17T01:54:17.941Z,18.00
2023-06-17T01:57:03.523Z,17.90
2023-06-17T01:59:56.043Z,17.90
2023-06-17T02:02:48.103Z,17.90
2023-06-17T02:05:40.054Z,17.80
2023-06-17T02:08:32.004Z,17.80
2023-06-17T02:11:24.137Z,17.80
2023-06-17T02:14:10.052Z,17.80
2023-06-17T02:17:04.082Z,17.70
2023-06-17T02:19:56.041Z,17.70
2023-06-17T02:22:41.367Z,17.70
2023-06-17T02:25:33.091Z,17.60
2023-06-17T02:28:18.836Z,17.60
2023-06-17T02:31:11.081Z,17.60
2023-06-17T02:34:04.039Z,17.60
2023-06-17T02:36:57.001Z,17.50
2023-06-17T02:39:49.085Z,17.50
2023-06-17T02:42:41.071Z,17.50
2023-06-17T02:45:33.075Z,17.50
2023-06-17T02:48:25.048Z,17.40
2023-06-17T02:51:17.112Z,17.40
2023-06-17T02:54:02.900Z,17.40
2023-06-17T02:56:55.041Z,17.40
2023-06-17T02:59:47.108Z,17.30
2023-06-17T03:02:32.500Z,17.30
2023-06-17T03:05:27.106Z,17.30
2023-06-17T03:08:12.447Z,17.20
2023-06-17T03:11:04.121Z,17.20
2023-06-17T03:13:49.703Z,17.20
2023-06-17T03:16:42.160Z,17.10
2023-06-17T03:19:28.350Z,17.10
2023-06-17T03:22:20.146Z,17.10
2023-06-17T03:25:06.668Z,17.00
2023-06-17T03:27:58.137Z,17.00
2023-06-17T03:30:43.929Z,17.00
2023-06-17T03:33:36.128Z,17.00
2023-06-17T03:36:38.176Z,16.90
2023-06-17T03:39:23.926Z,16.90
2023-06-17T03:42:16.207Z,16.90
2023-06-17T03:45:01.880Z,16.90
2023-06-17T03:47:54.259Z,16.90
2023-06-17T03:50:39.838Z,16.90
2023-06-17T03:53:32.180Z,16.90
2023-06-17T03:56:17.713Z,16.90
2023-06-17T03:59:10.229Z,16.90
2023-06-17T04:01:55.784Z,16.90
2023-06-17T04:04:48.192Z,16.90
2023-06-17T04:07:34.304Z,16.90
2023-06-17T04:10:26.529Z,16.90
2023-06-17T04:13:18.184Z,16.90
2023-06-17T04:16:10.244Z,16.90
2023-06-17T04:19:03.498Z,16.90
2023-06-17T04:21:55.229Z,16.90
2023-06-17T04:24:47.198Z,17.00
2023-06-17T04:27:33.053Z,17.00
2023-06-17T04:30:25.271Z,17.00
2023-06-17T04:33:13.046Z,17.00
2023-06-17T04:36:05.223Z,17.00
2023-06-17T04:38:57.195Z,17.00
2023-06-17T04:41:53.307Z,17.00
2023-06-17T04:44:45.204Z,17.00
2023-06-17T04:47:30.743Z,17.00
2023-06-17T04:50:25.243Z,17.00
2023-06-17T04:53:11.408Z,17.00
2023-06-17T04:56:04.244Z,17.10
2023-06-17T04:58:49.734Z,17.10
2023-06-17T05:01:42.274Z,17.10
2023-06-17T05:04:27.893Z,17.10
2023-06-17T05:07:20.239Z,17.20
2023-06-17T05:10:06.535Z,17.20
2023-06-17T05:12:58.332Z,17.20
2023-06-17T05:15:43.734Z,17.20
2023-06-17T05:18:35.273Z,17.20
2023-06-17T05:21:24.118Z,17.30
2023-06-17T05:24:16.312Z,17.30
2023-06-17T05:27:02.039Z,17.30
2023-06-17T05:29:53.289Z,17.30
2023-06-17T05:32:38.692Z,17.30
2023-06-17T05:35:31.295Z,17.40
2023-06-17T05:38:16.955Z,17.40
2023-06-17T05:41:09.294Z,17.50
2023-06-17T05:44:01.559Z,17.50
2023-06-17T05:46:47.253Z,17.60
2023-06-17T05:49:39.375Z,17.60
2023-06-17T05:52:32.354Z,17.70
2023-06-17T05:55:17.666Z,17.70
2023-06-17T05:58:10.396Z,17.80
2023-06-17T06:00:55.970Z,17.80
2023-06-17T06:03:47.413Z,17.90
2023-06-17T06:06:34.981Z,17.90
2023-06-17T06:09:27.614Z,17.90
2023-06-17T06:12:13.737Z,18.00
2023-06-17T06:15:06.344Z,18.00
2023-06-17T06:17:58.416Z,18.00
2023-06-17T06:20:43.728Z,18.10
2023-06-17T06:23:36.354Z,18.20
2023-06-17T06:26:28.433Z,18.20
2023-06-17T06:29:14.816Z,18.20
2023-06-17T06:32:06.442Z,18.20
2023-06-17T06:34:51.737Z,18.30
2023-06-17T06:37:43.412Z,18.30
2023-06-17T06:40:35.438Z,18.30
2023-06-17T06:43:27.378Z,18.40
2023-06-17T06:46:15.289Z,18.40
2023-06-17T06:49:08.472Z,18.50
2023-06-17T06:51:53.840Z,18.50
2023-06-17T06:54:45.394Z,18.50
2023-06-17T06:57:31.009Z,18.60
2023-06-17T07:00:23.684Z,18.60
2023-06-17T07:03:09.501Z,18.60
2023-06-17T07:06:01.474Z,18.60
2023-06-17T07:08:46.594Z,18.70
2023-06-17T07:11:38.456Z,18.70
2023-06-17T07:14:36.484Z,18.80
2023-06-17T07:17:28.670Z,18.90
2023-06-17T07:20:20.589Z,19.00
2023-06-17T07:23:12.501Z,19.10
2023-06-17T07:25:57.899Z,19.10
2023-06-17T07:28:50.484Z,19.20
2023-06-17T07:31:35.889Z,19.30
2023-06-17T07:34:27.588Z,19.40
2023-06-17T07:37:13.323Z,19.40
2023-06-17T07:40:05.600Z,19.50
2023-06-17T07:42:57.693Z,19.60
2023-06-17T07:45:43.497Z,19.60
2023-06-17T07:48:35.674Z,19.70
2023-06-17T07:51:27.561Z,19.80
2023-06-17T07:54:12.764Z,19.90
2023-06-17T07:57:04.697Z,19.90
2023-06-17T07:59:50.172Z,20.00
2023-06-17T08:02:41.711Z,20.10
2023-06-17T08:05:27.504Z,20.10
2023-06-17T08:08:19.485Z,20.20
2023-06-17T08:11:05.182Z,20.30
2023-06-17T08:13:57.561Z,20.30
2023-06-17T08:16:53.632Z,20.50
2023-06-17T08:19:45.545Z,20.70
2023-06-17T08:22:38.559Z,20.90
2023-06-17T08:25:24.085Z,21.20
2023-06-17T08:28:16.600Z,21.30
2023-06-17T08:31:08.611Z,21.30
2023-06-17T08:33:53.858Z,21.40
2023-06-17T08:36:54.648Z,21.60
2023-06-17T08:39:41.011Z,21.80
2023-06-17T08:42:34.602Z,21.90
2023-06-17T08:45:28.768Z,22.00
2023-06-17T08:48:13.914Z,22.10
2023-06-17T08:51:07.637Z,22.20
2023-06-17T08:54:00.617Z,22.40
2023-06-17T08:56:46.370Z,22.60
2023-06-17T08:59:38.616Z,22.80
2023-06-17T09:02:25.627Z,23.00
2023-06-17T09:05:17.832Z,23.10
2023-06-17T09:08:10.642Z,23.10
2023-06-17T09:11:12.639Z,23.10
2023-06-17T09:14:00.616Z,23.20
2023-06-17T09:16:52.748Z,23.30
2023-06-17T09:19:47.679Z,23.50
2023-06-17T09:22:33.175Z,23.60
2023-06-17T09:25:26.701Z,23.70
2023-06-17T09:28:17.308Z,23.70
2023-06-17T09:31:13.642Z,23.80
2023-06-17T09:34:03.549Z,23.70
2023-06-17T09:37:08.664Z,23.70
2023-06-17T09:39:54.268Z,23.80
2023-06-17T09:42:46.841Z,23.90
2023-06-17T09:45:39.723Z,24.10
2023-06-17T09:48:37.744Z,24.30
2023-06-17T09:51:24.588Z,24.40
2023-06-17T09:54:17.724Z,24.50
2023-06-17T09:57:03.721Z,24.60
2023-06-17T09:59:57.688Z,24.70
2023-06-17T10:02:49.783Z,24.90
2023-06-17T10:05:35.160Z,24.90
2023-06-17T10:08:29.096Z,25.00
2023-06-17T10:11:18.652Z,25.10
2023-06-17T10:14:25.742Z,25.20
2023-06-17T10:17:18.782Z,25.40
2023-06-17T10:20:13.030Z,25.60
2023-06-17T10:23:05.814Z,25.70
2023-06-17T10:25:59.754Z,25.80
2023-06-17T10:29:00.830Z,26.00
2023-06-17T10:31:46.293Z,26.20
2023-06-17T10:34:37.772Z,26.40
2023-06-17T10:37:28.282Z,26.40
2023-06-17T10:40:34.824Z,26.40
2023-06-17T10:43:21.944Z,26.60
2023-06-17T10:46:15.943Z,26.60
2023-06-17T10:49:01.675Z,26.90
2023-06-17T10:51:59.339Z,27.10
2023-06-17T10:54:53.840Z,27.20
2023-06-17T10:57:39.333Z,27.40
2023-06-17T11:00:30.788Z,27.40
2023-06-17T11:03:17.940Z,27.40
2023-06-17T11:06:11.960Z,27.20
2023-06-17T11:08:57.409Z,27.10
2023-06-17T11:11:49.868Z,27.00
2023-06-17T11:14:42.962Z,27.10
2023-06-17T11:17:28.539Z,27.40
2023-06-17T11:20:21.278Z,27.60
2023-06-17T11:23:06.882Z,27.60
2023-06-17T11:26:00.913Z,27.80
2023-06-17T11:28:54.861Z,27.90
2023-06-17T11:31:47.923Z,28.00
2023-06-17T11:34:33.978Z,28.10
2023-06-17T11:37:26.884Z,28.30
2023-06-17T11:40:13.730Z,28.40
2023-06-17T11:43:05.856Z,28.50
2023-06-17T11:45:52.092Z,28.40
2023-06-17T11:48:43.968Z,28.40
2023-06-17T11:51:44.729Z,28.50
2023-06-17T11:54:30.482Z,28.70
2023-06-17T11:57:30.923Z,28.90
2023-06-17T12:00:23.205Z,29.10
2023-06-17T12:03:09.013Z,29.10
2023-06-17T12:06:00.914Z,29.10
2023-06-17T12:08:56.623Z,29.00
2023-06-17T12:11:51.148Z,28.70
2023-06-17T12:14:44.946Z,28.60
2023-06-17T12:17:43.912Z,28.50
2023-06-17T12:20:36.002Z,28.40
2023-06-17T12:23:21.352Z,28.30
2023-06-17T12:26:14.149Z,28.40
2023-06-17T12:29:19.693Z,28.60
2023-06-17T12:32:10.463Z,28.90
2023-06-17T12:35:01.940Z,29.10
2023-06-17T12:37:55.951Z,29.20
2023-06-17T12:40:48.153Z,29.50
2023-06-17T12:43:39.966Z,29.70
2023-06-17T12:46:32.144Z,29.70
2023-06-17T12:49:24.004Z,29.60
2023-06-17T12:52:10.823Z,29.60
2023-06-17T12:55:06.940Z,29.50
2023-06-17T12:57:52.476Z,29.30
2023-06-17T13:00:45.028Z,29.40
2023-06-17T13:03:37.060Z,29.60
2023-06-17T13:06:22.522Z,29.70
2023-06-17T13:09:15.220Z,29.80
2023-06-17T13:12:00.718Z,29.80
2023-06-17T13:14:59.006Z,29.80
2023-06-17T13:17:51.196Z,30.00
2023-06-17T13:20:43.073Z,30.10
2023-06-17T13:23:35.014Z,30.20
2023-06-17T13:26:34.039Z,30.20
2023-06-17T13:29:29.042Z,30.20
2023-06-17T13:32:15.610Z,30.10
2023-06-17T13:35:11.072Z,30.10
2023-06-17T13:37:58.789Z,30.20
2023-06-17T13:40:51.025Z,30.20
2023-06-17T13:43:44.114Z,30.40
2023-06-17T13:46:36.166Z,30.50
2023-06-17T13:49:29.108Z,30.70
2023-06-17T13:52:24.128Z,30.90
2023-06-17T13:55:09.583Z,31.00
2023-06-17T13:58:01.133Z,30.90
2023-06-17T14:00:46.648Z,30.70
2023-06-17T14:03:39.223Z,30.70
2023-06-17T14:06:26.405Z,30.90
2023-06-17T14:09:18.086Z,30.90
2023-06-17T14:12:10.100Z,31.00
2023-06-17T14:15:02.227Z,31.20
2023-06-17T14:17:54.276Z,31.00
2023-06-17T14:20:46.176Z,30.90
2023-06-17T14:23:31.326Z,30.80
2023-06-17T14:26:23.176Z,30.70
2023-06-17T14:29:16.147Z,30.70
2023-06-17T14:32:01.535Z,30.50
2023-06-17T14:34:54.141Z,30.50
2023-06-17T14:37:47.170Z,30.40
2023-06-17T14:40:39.188Z,30.30
2023-06-17T14:43:24.563Z,30.30
2023-06-17T14:46:17.332Z,30.30
2023-06-17T14:49:02.744Z,30.20
2023-06-17T14:51:56.140Z,30.20
2023-06-17T14:54:42.204Z,30.30
2023-06-17T14:57:34.204Z,30.30
2023-06-17T15:00:27.178Z,30.50
2023-06-17T15:03:12.661Z,30.70
2023-06-17T15:06:05.257Z,30.80
2023-06-17T15:08:51.401Z,30.70
2023-06-17T15:11:43.166Z,30.60
2023-06-17T15:14:33.311Z,30.60
2023-06-17T15:17:25.257Z,30.70
2023-06-17T15:20:11.356Z,30.60
2023-06-17T15:23:03.256Z,30.30
2023-06-17T15:25:49.040Z,30.20
2023-06-17T15:28:41.192Z,30.10
2023-06-17T15:31:26.566Z,30.10
2023-06-17T15:34:18.250Z,30.20
2023-06-17T15:37:03.946Z,30.20
2023-06-17T15:39:56.339Z,30.10
2023-06-17T15:42:44.430Z,30.10
2023-06-17T15:45:37.322Z,30.10
2023-06-17T15:48:29.254Z,30.00
2023-06-17T15:51:14.793Z,30.00
2023-06-17T15:54:06.229Z,30.10
2023-06-17T15:57:05.260Z,29.90
2023-06-17T16:00:07.246Z,29.80
2023-06-17T16:02:58.496Z,29.80
2023-06-17T16:05:51.325Z,29.90
2023-06-17T16:08:44.421Z,29.80
2023-06-17T16:11:30.547Z,29.70
2023-06-17T16:14:22.514Z,29.70
2023-06-17T16:17:15.312Z,29.60
2023-06-17T16:20:00.826Z,29.60
2023-06-17T16:22:53.321Z,29.70
2023-06-17T16:25:54.269Z,29.70
2023-06-17T16:28:48.368Z,29.70
2023-06-17T16:31:33.895Z,29.70
2023-06-17T16:34:26.374Z,29.90
2023-06-17T16:37:19.390Z,30.10
2023-06-17T16:40:12.356Z,30.10
2023-06-17T16:42:59.747Z,29.80
2023-06-17T16:45:52.425Z,29.60
2023-06-17T16:48:44.341Z,29.60
2023-06-17T16:51:37.347Z,29.30
2023-06-17T16:54:22.623Z,29.10
2023-06-17T16:57:17.381Z,29.10
2023-06-17T17:00:05.831Z,29.00
2023-06-17T17:02:58.393Z,28.80
2023-06-17T17:05:44.351Z,28.60
2023-06-17T17:08:38.422Z,28.40
2023-06-17T17:11:30.488Z,28.30
2023-06-17T17:14:15.950Z,28.20
2023-06-17T17:17:07.458Z,28.10
2023-06-17T17:20:01.488Z,28.10
2023-06-17T17:22:48.119Z,28.10
2023-06-17T17:25:43.470Z,28.10
2023-06-17T17:28:29.294Z,28.10
2023-06-17T17:31:21.419Z,28.00
2023-06-17T17:34:07.325Z,28.00
2023-06-17T17:37:00.443Z,28.00
2023-06-17T17:39:46.618Z,28.00
2023-06-17T17:42:38.491Z,28.00
2023-06-17T17:45:30.461Z,28.00
2023-06-17T17:48:23.393Z,28.00
2023-06-17T17:51:15.451Z,27.90
2023-06-17T17:54:00.910Z,27.80
2023-06-17T17:56:53.527Z,27.70
2023-06-17T17:59:39.992Z,27.60
2023-06-17T18:02:32.574Z,27.50
2023-06-17T18:05:18.592Z,27.50
2023-06-17T18:08:10.475Z,27.40
2023-06-17T18:10:56.074Z,27.30
2023-06-17T18:13:47.526Z,27.20
2023-06-17T18:16:39.562Z,27.20
2023-06-17T18:19:31.501Z,27.10
2023-06-17T18:22:16.757Z,27.00
2023-06-17T18:25:08.474Z,26.90
2023-06-17T18:27:53.912Z,26.80
2023-06-17T18:30:47.532Z,26.70
2023-06-17T18:33:33.350Z,26.70
2023-06-17T18:36:25.532Z,26.50
2023-06-17T18:39:17.540Z,26.50
2023-06-17T18:42:09.648Z,26.50
2023-06-17T18:45:01.529Z,26.40
2023-06-17T18:47:47.579Z,26.40
2023-06-17T18:50:39.545Z,26.30
2023-06-17T18:53:24.860Z,26.20
2023-06-17T18:56:16.561Z,26.20
2023-06-17T18:59:08.668Z,26.10
2023-06-17T19:02:01.859Z,26.10
2023-06-17T19:04:53.540Z,26.00
2023-06-17T19:07:48.591Z,25.90
2023-06-17T19:10:40.578Z,25.90
2023-06-17T19:13:32.667Z,25.80
2023-06-17T19:16:26.687Z,25.70
2023-06-17T19:19:12.483Z,25.60
2023-06-17T19:22:04.614Z,25.50
2023-06-17T19:24:50.263Z,25.50
2023-06-17T19:27:41.640Z,25.40
2023-06-17T19:30:33.569Z,25.30
2023-06-17T19:33:20.531Z,25.20
2023-06-17T19:36:13.603Z,25.10
2023-06-17T19:38:59.069Z,25.00
2023-06-17T19:41:51.615Z,25.00
2023-06-17T19:44:49.635Z,24.90
2023-06-17T19:47:34.778Z,24.90
2023-06-17T19:50:26.705Z,24.80
2023-06-17T19:53:12.211Z,24.80
2023-06-17T19:56:04.617Z,24.70
2023-06-17T19:58:49.838Z,24.70
2023-06-17T20:01:41.729Z,24.70
2023-06-17T20:04:27.304Z,24.60
2023-06-17T20:07:19.669Z,24.50
2023-06-17T20:10:12.624Z,24.50
2023-06-17T20:12:59.039Z,24.50
2023-06-17T20:15:51.704Z,24.40
2023-06-17T20:18:43.697Z,24.30
2023-06-17T20:21:35.705Z,24.30
2023-06-17T20:24:22.581Z,24.30
2023-06-17T20:27:14.741Z,24.30
2023-06-17T20:30:06.694Z,24.30
2023-06-17T20:32:52.332Z,24.20
2023-06-17T20:35:44.756Z,24.20
2023-06-17T20:38:30.078Z,24.20
2023-06-17T20:41:21.675Z,24.10
2023-06-17T20:44:13.780Z,24.10
2023-06-17T20:47:06.795Z,24.10
2023-06-17T20:49:58.787Z,24.10
2023-06-17T20:52:44.156Z,24.00
2023-06-17T20:55:37.694Z,24.00
2023-06-17T20:58:23.039Z,24.00
2023-06-17T21:01:16.797Z,24.00
2023-06-17T21:04:02.109Z,24.00
2023-06-17T21:06:54.744Z,24.00
2023-06-17T21:09:41.059Z,24.00
2023-06-17T21:12:32.798Z,24.00
2023-06-17T21:15:18.028Z,24.00
2023-06-17T21:18:11.785Z,24.00
2023-06-17T21:21:04.818Z,24.00
2023-06-17T21:23:50.633Z,24.00
2023-06-17T21:26:42.818Z,24.00
2023-06-17T21:29:28.153Z,24.00
2023-06-17T21:32:20.783Z,24.00
2023-06-17T21:35:06.277Z,24.00
2023-06-17T21:37:57.847Z,24.00
2023-06-17T21:40:43.701Z,24.00
2023-06-17T21:43:39.908Z,24.00
2023-06-17T21:46:34.210Z,24.00
2023-06-17T21:49:19.985Z,23.90
2023-06-17T21:52:12.865Z,23.90
2023-06-17T21:54:58.206Z,23.90
2023-06-17T21:57:50.830Z,23.90
2023-06-17T22:00:36.588Z,23.90
2023-06-17T22:03:28.944Z,23.90
2023-06-17T22:06:14.773Z,23.90
2023-06-17T22:09:06.845Z,23.90
2023-06-17T22:11:59.880Z,23.80
2023-06-17T22:14:51.880Z,23.80
2023-06-17T22:17:43.914Z,23.80
2023-06-17T22:20:30.009Z,23.80
2023-06-17T22:23:21.868Z,23.80
2023-06-17T22:26:07.345Z,23.80
2023-06-17T22:28:59.890Z,23.70
2023-06-17T22:31:45.556Z,23.70
2023-06-17T22:34:37.918Z,23.70
2023-06-17T22:37:23.261Z,23.70
2023-06-17T22:40:16.876Z,23.70
2023-06-17T22:43:02.131Z,23.70
2023-06-17T22:45:55.181Z,23.60
2023-06-17T22:48:46.968Z,23.60
2023-06-17T22:51:38.928Z,23.60
2023-06-17T22:54:24.309Z,23.60
2023-06-17T22:57:15.998Z,23.60
2023-06-17T23:00:01.461Z,23.60
2023-06-17T23:02:54.071Z,23.50
2023-06-17T23:05:45.972Z,23.50
2023-06-17T23:08:44.969Z,23.50
2023-06-17T23:11:30.531Z,23.40
2023-06-17T23:14:22.928Z,23.40
2023-06-17T23:17:08.417Z,23.40
2023-06-17T23:20:02.967Z,23.40
2023-06-17T23:22:48.909Z,23.40
2023-06-17T23:25:40.995Z,23.40
2023-06-17T23:28:32.977Z,23.30
2023-06-17T23:31:18.422Z,23.40
2023-06-17T23:34:11.016Z,23.30
2023-06-17T23:36:56.192Z,23.30
2023-06-17T23:39:48.035Z,23.30
2023-06-17T23:42:33.381Z,23.20
2023-06-17T23:45:25.036Z,23.20
2023-06-17T23:48:10.645Z,23.10
2023-06-17T23:51:03.023Z,23.10
2023-06-17T23:53:49.141Z,23.00
2023-06-17T23:56:41.035Z,23.00
2023-06-17T23:59:26.788Z,23.00
